Aérodrome :
LOGIN :

S'inscrire | Disclaimer

   EN    FR    IT 

 










Légende :    VFR   VFR Marginal   IFR   IFR Intensif   IFR Très Intensif
Visi : 
Plafond : 
>= 8 km
>= 3000ft
5 à 8 km
1000 à 3000 ft
1500m à 5 km
500 à 1000 ft
800 à 1500m
200 à 500 ft
< 800m
< 200 ft
Symboles :   Orages  Brouillard  Fortes neiges  Fortes précipitations  Vent > 20 kt
SIGMETs :   Divers  Orages  Givrage  Turbulence  Onde Orograph.  Cendres Volcan.






- Altitude de l'aérodrome : 538 ft
- Code IATA : TNF


LFPN - Toussus Le Noble

DERNIER METAR :
  • 230930Z AUTO 28004KT 240V320 9999 FEW026 OVC038 18/12 Q1017 TEMPO 4000 -SHRA BKN035TCU

METARs EXPIRÉS :
  • 230900Z AUTO 27005KT 220V300 9999 BKN038 OVC092 18/12 Q1017 TEMPO 4000 -SHRA BKN035TCU
  • 230830Z AUTO 24006KT 9999 SCT040 SCT066 OVC096 17/11 Q1017 TEMPO 4000 -SHRA BKN035TCU
  • 230800Z AUTO 24006KT 200V270 9999 NCD 17/11 Q1016
  • 230730Z AUTO 23003KT 190V280 9999 FEW043 OVC070 16/12 Q1016 TEMPO 4000 -SHRA BKN035TCU
  • 230700Z AUTO 23003KT 210V280 CAVOK 15/12 Q1016 NOSIG
  • 230630Z AUTO 29004KT 250V310 CAVOK 14/12 Q1016 NOSIG
  • 230600Z AUTO 25003KT CAVOK 13/11 Q1016 NOSIG
  • 230530Z AUTO 24005KT CAVOK 12/11 Q1016 NOSIG
  • 230500Z AUTO 24003KT 9999 SCT038 SCT050 OVC072 12/11 Q1016

TAF TAF LFPN
Valide du 23 à 09h jusqu'au 23 à 18h UTC


230800Z 2309/2318 25006KT 9999 BKN030
TEMPO 2310/2318 4000 -SHRA BKN035TCU
PROB40
TEMPO 2312/2318 22010G25KT 2000 TSRAGS SCT030CB
ATIS : +33 1 39 56 54 70



MET'MAP, la Météo Aéronautique d'un coup d'oeil ! - Copyright ORBIFLY Décembre 2007 - Disclaimer

ORBIFLY MET'MAP TEAM :

Programmation & Développement : Alexandra Zaïnal
Sur une idée originale de : Baudouin d'Aumeries
Soutien technique & logistique : Manuel Goepfert
Assistance : Marc-Olivier Méhu




SOURCES & CREDITS :

   NOAA